Time;durP1;ratioP1;P1;durP2;ratioP2;P2;SDS_P1;SDS_P2;PMS_P1;PMS_P2;Temp;Humidity;BMP_temperature;BMP_pressure;BME280_temperature;BME280_humidity;BME280_pressure;Samples;Min_cycle;Max_cycle;Signal;HPM_P1;HPM_P2
2022/10/20 00:01:34;;;;;;;9.02;3.47;;;;;;;;;;5022182;28;20014;-66
2022/10/20 00:03:59;;;;;;;9.40;3.55;;;;;;;;;;5036061;28;20029;-67
2022/10/20 00:06:25;;;;;;;6.95;3.65;;;;;;;;;;5037404;28;20040;-66
2022/10/20 00:08:51;;;;;;;13.10;4.35;;;;;;;;;;5039047;28;20032;-68
2022/10/20 00:11:18;;;;;;;9.50;3.53;;;;;;;;;;5031917;28;20037;-67
2022/10/20 00:13:44;;;;;;;13.80;4.50;;;;;;;;;;5049146;28;20021;-67
2022/10/20 00:16:09;;;;;;;10.18;4.50;;;;;;;;;;5032042;28;20013;-66
2022/10/20 00:18:34;;;;;;;17.40;4.57;;;;;;;;;;5029942;28;20029;-64
2022/10/20 00:21:03;;;;;;;12.38;4.25;;;;;;;;;;5018295;28;20102;-67
2022/10/20 00:23:28;;;;;;;10.23;4.43;;;;;;;;;;5032261;28;20120;-67
2022/10/20 00:26:04;;;;;;;13.07;3.83;;;;;;;;;;5035405;28;20394;-68
2022/10/20 00:28:29;;;;;;;16.77;4.75;;;;;;;;;;5040544;28;20518;-68
2022/10/20 00:30:55;;;;;;;8.15;3.97;;;;;;;;;;5032058;28;20025;-68
2022/10/20 00:33:20;;;;;;;14.38;4.28;;;;;;;;;;5014074;28;20108;-67
2022/10/20 00:35:46;;;;;;;13.70;4.18;;;;;;;;;;5036950;28;20025;-66
2022/10/20 00:38:11;;;;;;;8.15;3.83;;;;;;;;;;5039951;28;20018;-66
2022/10/20 00:40:36;;;;;;;13.57;4.28;;;;;;;;;;5024614;28;20033;-65
2022/10/20 00:43:01;;;;;;;10.38;4.35;;;;;;;;;;5033446;28;20033;-66
2022/10/20 00:45:26;;;;;;;7.78;3.42;;;;;;;;;;5046963;28;20083;-66
2022/10/20 00:47:57;;;;;;;7.15;3.40;;;;;;;;;;5030180;28;20514;-67
2022/10/20 00:50:24;;;;;;;10.35;4.13;;;;;;;;;;5042236;28;20017;-66
2022/10/20 00:52:50;;;;;;;10.48;4.38;;;;;;;;;;5031182;28;20565;-66
2022/10/20 00:55:21;;;;;;;12.88;3.35;;;;;;;;;;5031506;28;20627;-66
2022/10/20 00:57:48;;;;;;;8.30;4.30;;;;;;;;;;5031504;28;20026;-66
2022/10/20 01:00:14;;;;;;;11.48;3.97;;;;;;;;;;5031222;28;20083;-66
2022/10/20 01:02:39;;;;;;;7.18;3.60;;;;;;;;;;5031684;28;20034;-65
2022/10/20 01:05:05;;;;;;;8.25;3.95;;;;;;;;;;5031067;28;20026;-66
2022/10/20 01:07:30;;;;;;;6.85;3.60;;;;;;;;;;5013257;28;20094;-65
2022/10/20 01:09:56;;;;;;;8.90;3.63;;;;;;;;;;5036394;28;20032;-66
2022/10/20 01:12:34;;;;;;;7.55;3.60;;;;;;;;;;5029845;28;20025;-67
2022/10/20 01:15:02;;;;;;;8.23;3.58;;;;;;;;;;5030411;28;20053;-67
2022/10/20 01:17:44;;;;;;;7.82;3.33;;;;;;;;;;5030717;28;20009;-67
2022/10/20 01:20:28;;;;;;;9.13;3.35;;;;;;;;;;5031195;28;20021;-65
2022/10/20 01:23:11;;;;;;;11.15;3.85;;;;;;;;;;5032618;28;20027;-66
2022/10/20 01:25:51;;;;;;;7.72;3.50;;;;;;;;;;5030600;28;20021;-65
2022/10/20 01:28:27;;;;;;;6.28;3.40;;;;;;;;;;5023255;28;20018;-63
2022/10/20 01:30:56;;;;;;;14.10;3.45;;;;;;;;;;5011900;28;20475;-65
2022/10/20 01:33:31;;;;;;;7.70;3.38;;;;;;;;;;5030512;28;20022;-65
2022/10/20 01:36:17;;;;;;;7.35;3.35;;;;;;;;;;5030302;28;20021;-66
2022/10/20 01:39:04;;;;;;;6.90;3.50;;;;;;;;;;5030348;28;20056;-64
2022/10/20 01:41:41;;;;;;;10.85;3.72;;;;;;;;;;5030533;28;20088;-66
2022/10/20 01:44:09;;;;;;;8.23;3.58;;;;;;;;;;5035661;28;20546;-65
2022/10/20 01:46:35;;;;;;;5.85;3.30;;;;;;;;;;5037409;28;20666;-66
2022/10/20 01:49:02;;;;;;;5.00;2.97;;;;;;;;;;5040334;28;20037;-66
2022/10/20 01:51:28;;;;;;;12.00;3.45;;;;;;;;;;5036930;28;20111;-66
2022/10/20 01:53:53;;;;;;;8.88;3.67;;;;;;;;;;5036843;28;20483;-67
2022/10/20 01:56:23;;;;;;;8.95;3.28;;;;;;;;;;5036625;28;20092;-66
2022/10/20 01:58:49;;;;;;;8.05;3.53;;;;;;;;;;5030307;28;20071;-66
2022/10/20 02:01:27;;;;;;;7.82;3.13;;;;;;;;;;5029592;28;20017;-66
2022/10/20 02:03:54;;;;;;;11.48;3.65;;;;;;;;;;5035822;28;20063;-66
2022/10/20 02:06:39;;;;;;;7.95;3.60;;;;;;;;;;5043245;28;20316;-65
2022/10/20 02:09:06;;;;;;;15.57;3.67;;;;;;;;;;5027020;28;20030;-65
2022/10/20 02:11:40;;;;;;;11.70;3.90;;;;;;;;;;5030057;28;20036;-66
2022/10/20 02:14:06;;;;;;;9.27;3.75;;;;;;;;;;5030080;28;20029;-65
2022/10/20 02:16:37;;;;;;;11.05;3.90;;;;;;;;;;5029341;28;20071;-66
2022/10/20 02:19:04;;;;;;;9.52;3.53;;;;;;;;;;5029762;28;20128;-67
2022/10/20 02:21:30;;;;;;;17.73;3.92;;;;;;;;;;5030140;28;20024;-67
2022/10/20 02:23:59;;;;;;;12.13;3.55;;;;;;;;;;5031671;28;20108;-66
2022/10/20 02:26:24;;;;;;;11.32;4.18;;;;;;;;;;5029982;28;20503;-66
2022/10/20 02:28:55;;;;;;;7.20;3.75;;;;;;;;;;5030242;28;20087;-66
2022/10/20 02:31:21;;;;;;;8.63;3.97;;;;;;;;;;5029969;28;20028;-66
2022/10/20 02:33:46;;;;;;;20.42;3.72;;;;;;;;;;5029612;28;20022;-66
2022/10/20 02:36:15;;;;;;;15.35;4.20;;;;;;;;;;5029544;28;20025;-64
2022/10/20 02:38:41;;;;;;;11.88;3.60;;;;;;;;;;5030148;28;20025;-66
2022/10/20 02:41:06;;;;;;;8.50;3.40;;;;;;;;;;5027907;28;20117;-66
2022/10/20 02:43:31;;;;;;;11.68;4.60;;;;;;;;;;5034183;28;20082;-67
2022/10/20 02:45:56;;;;;;;14.77;4.25;;;;;;;;;;5029662;28;20045;-65
2022/10/20 02:48:21;;;;;;;9.85;4.00;;;;;;;;;;5037610;28;20097;-67
2022/10/20 02:50:47;;;;;;;15.98;4.82;;;;;;;;;;5038768;28;20021;-64
2022/10/20 02:53:12;;;;;;;18.35;4.22;;;;;;;;;;5030386;28;20029;-66
2022/10/20 02:55:37;;;;;;;15.70;4.55;;;;;;;;;;5049861;28;20017;-67
2022/10/20 02:58:02;;;;;;;17.58;4.47;;;;;;;;;;5034926;28;20636;-68
2022/10/20 03:00:29;;;;;;;13.23;3.83;;;;;;;;;;5029437;28;20021;-66
2022/10/20 03:02:55;;;;;;;10.40;3.80;;;;;;;;;;5029380;28;20041;-66
2022/10/20 03:05:20;;;;;;;8.10;3.88;;;;;;;;;;5036852;28;20063;-67
2022/10/20 03:07:45;;;;;;;13.65;5.60;;;;;;;;;;5040525;28;20056;-65
2022/10/20 03:10:10;;;;;;;15.50;4.78;;;;;;;;;;5029303;28;20022;-67
2022/10/20 03:12:35;;;;;;;10.90;4.68;;;;;;;;;;5028155;28;20133;-65
2022/10/20 03:15:01;;;;;;;11.57;4.70;;;;;;;;;;5029433;28;20025;-66
2022/10/20 03:17:26;;;;;;;13.35;4.43;;;;;;;;;;5028823;28;20022;-68
2022/10/20 03:19:51;;;;;;;14.88;4.15;;;;;;;;;;5029090;28;20056;-67
2022/10/20 03:22:16;;;;;;;16.38;5.10;;;;;;;;;;5029033;28;20495;-67
2022/10/20 03:24:42;;;;;;;11.57;5.15;;;;;;;;;;5028288;28;20034;-66
2022/10/20 03:27:07;;;;;;;12.45;5.10;;;;;;;;;;5021346;28;20053;-66
2022/10/20 03:29:32;;;;;;;14.77;5.00;;;;;;;;;;5029012;28;20018;-65
2022/10/20 03:31:57;;;;;;;15.50;4.82;;;;;;;;;;5028883;28;20034;-67
2022/10/20 03:34:23;;;;;;;12.68;5.40;;;;;;;;;;5028901;28;20452;-67
2022/10/20 03:36:48;;;;;;;17.38;5.07;;;;;;;;;;5042174;28;20043;-66
2022/10/20 03:39:13;;;;;;;10.60;5.28;;;;;;;;;;5029004;28;20412;-66
2022/10/20 03:41:38;;;;;;;12.57;5.47;;;;;;;;;;5028971;28;20030;-67
2022/10/20 03:44:03;;;;;;;18.63;6.07;;;;;;;;;;5029189;28;20115;-68
2022/10/20 03:46:29;;;;;;;12.25;5.18;;;;;;;;;;5028375;28;20144;-65
2022/10/20 03:48:54;;;;;;;16.58;6.75;;;;;;;;;;5037490;28;20025;-64
2022/10/20 03:51:19;;;;;;;13.80;6.70;;;;;;;;;;5032076;28;20556;-66
2022/10/20 03:53:44;;;;;;;16.13;5.43;;;;;;;;;;5024516;28;20092;-67
2022/10/20 03:56:12;;;;;;;12.10;5.03;;;;;;;;;;5018385;28;20044;-67
2022/10/20 03:58:37;;;;;;;17.38;6.47;;;;;;;;;;5018277;28;20036;-67
2022/10/20 04:01:03;;;;;;;17.90;6.78;;;;;;;;;;5014645;28;20528;-65
2022/10/20 04:03:28;;;;;;;13.20;5.55;;;;;;;;;;5016419;28;20786;-66
2022/10/20 04:05:53;;;;;;;16.70;6.75;;;;;;;;;;5022388;28;20594;-65
2022/10/20 04:08:18;;;;;;;15.30;6.03;;;;;;;;;;5023042;28;20025;-66
2022/10/20 04:10:44;;;;;;;17.77;5.82;;;;;;;;;;5009107;28;20032;-64
2022/10/20 04:13:09;;;;;;;13.05;5.90;;;;;;;;;;5019744;28;20035;-68
2022/10/20 04:15:34;;;;;;;14.48;6.45;;;;;;;;;;5027340;28;20024;-67
2022/10/20 04:17:59;;;;;;;13.77;5.55;;;;;;;;;;5036654;28;20024;-66
2022/10/20 04:20:24;;;;;;;16.40;6.85;;;;;;;;;;5034336;28;20370;-68
2022/10/20 04:22:50;;;;;;;16.55;6.57;;;;;;;;;;5031801;28;20021;-66
2022/10/20 04:25:15;;;;;;;14.48;6.45;;;;;;;;;;5042787;28;20029;-67
2022/10/20 04:27:40;;;;;;;20.92;6.30;;;;;;;;;;5031681;28;20064;-67
2022/10/20 04:30:06;;;;;;;21.98;6.63;;;;;;;;;;5011352;28;20108;-67
2022/10/20 04:32:31;;;;;;;16.88;6.68;;;;;;;;;;5032460;28;20397;-66
2022/10/20 04:34:57;;;;;;;20.95;8.10;;;;;;;;;;5031265;28;20014;-68
2022/10/20 04:37:22;;;;;;;16.40;7.60;;;;;;;;;;5031655;28;20040;-67
2022/10/20 04:39:49;;;;;;;16.80;6.90;;;;;;;;;;5036208;28;20034;-67
2022/10/20 04:42:15;;;;;;;18.73;7.35;;;;;;;;;;5028717;28;20376;-67
2022/10/20 04:44:40;;;;;;;19.83;7.97;;;;;;;;;;5031153;28;20026;-68
2022/10/20 04:47:05;;;;;;;15.18;7.78;;;;;;;;;;5031255;28;20028;-68
2022/10/20 04:49:30;;;;;;;23.15;7.68;;;;;;;;;;5034151;28;20075;-67
2022/10/20 04:51:55;;;;;;;16.20;6.82;;;;;;;;;;5041596;28;20049;-67
2022/10/20 04:54:21;;;;;;;20.08;8.52;;;;;;;;;;5031398;28;20060;-66
2022/10/20 04:56:46;;;;;;;19.58;6.93;;;;;;;;;;5030880;28;20067;-67
2022/10/20 04:59:11;;;;;;;31.58;7.70;;;;;;;;;;5031047;28;20040;-67
2022/10/20 05:01:36;;;;;;;17.88;8.38;;;;;;;;;;5031231;28;20034;-67
2022/10/20 05:04:01;;;;;;;15.20;7.60;;;;;;;;;;5030739;28;20021;-66
2022/10/20 05:06:28;;;;;;;22.48;8.38;;;;;;;;;;5029853;28;20511;-67
2022/10/20 05:08:54;;;;;;;22.08;8.07;;;;;;;;;;5035141;28;20420;-69
2022/10/20 05:11:21;;;;;;;21.17;8.63;;;;;;;;;;5036372;28;20032;-66
2022/10/20 05:13:46;;;;;;;22.52;8.95;;;;;;;;;;5041887;28;20562;-68
2022/10/20 05:16:12;;;;;;;22.80;8.23;;;;;;;;;;5030782;28;20096;-68
2022/10/20 05:18:37;;;;;;;29.58;8.93;;;;;;;;;;5030494;28;20099;-67
2022/10/20 05:21:06;;;;;;;23.08;9.68;;;;;;;;;;5029892;28;20025;-67
2022/10/20 05:23:31;;;;;;;24.35;9.70;;;;;;;;;;5029609;28;20026;-67
2022/10/20 05:25:56;;;;;;;24.80;9.30;;;;;;;;;;5024263;28;20092;-68
2022/10/20 05:28:21;;;;;;;20.75;8.73;;;;;;;;;;5035193;28;20022;-67
2022/10/20 05:30:46;;;;;;;33.47;9.52;;;;;;;;;;5025543;28;20033;-67
2022/10/20 05:33:12;;;;;;;44.20;12.38;;;;;;;;;;5026493;28;20025;-68
2022/10/20 05:35:37;;;;;;;43.80;12.82;;;;;;;;;;5030831;28;20484;-67
2022/10/20 05:38:02;;;;;;;27.10;10.13;;;;;;;;;;5030769;28;20389;-68
2022/10/20 05:40:27;;;;;;;26.73;9.65;;;;;;;;;;5041788;28;20030;-67
2022/10/20 05:42:52;;;;;;;24.65;9.95;;;;;;;;;;5030727;28;20025;-66
2022/10/20 05:45:18;;;;;;;30.65;10.73;;;;;;;;;;5038040;28;20067;-68
2022/10/20 05:47:43;;;;;;;40.38;11.63;;;;;;;;;;5020524;28;20079;-67
2022/10/20 05:50:08;;;;;;;31.58;12.32;;;;;;;;;;5030612;28;20036;-66
2022/10/20 05:52:34;;;;;;;38.20;12.27;;;;;;;;;;5030205;28;20084;-68
2022/10/20 05:54:59;;;;;;;26.08;10.10;;;;;;;;;;5037165;28;20034;-65
2022/10/20 05:57:25;;;;;;;21.13;9.45;;;;;;;;;;5043072;28;20020;-66
2022/10/20 05:59:50;;;;;;;39.83;11.35;;;;;;;;;;5030754;28;20083;-66
2022/10/20 06:02:15;;;;;;;24.77;8.88;;;;;;;;;;5027436;28;20347;-66
2022/10/20 06:04:40;;;;;;;39.58;10.80;;;;;;;;;;5034351;28;20090;-68
2022/10/20 06:07:08;;;;;;;29.95;10.35;;;;;;;;;;5042759;28;20059;-66
2022/10/20 06:09:33;;;;;;;36.28;11.13;;;;;;;;;;5031445;28;20018;-66
2022/10/20 06:11:59;;;;;;;39.42;10.93;;;;;;;;;;5038189;28;20028;-65
2022/10/20 06:14:24;;;;;;;33.97;11.32;;;;;;;;;;5037313;28;20013;-66
2022/10/20 06:16:53;;;;;;;24.50;10.35;;;;;;;;;;5029348;28;20071;-66
2022/10/20 06:19:18;;;;;;;28.48;10.85;;;;;;;;;;5029754;28;20017;-65
2022/10/20 06:21:43;;;;;;;32.00;11.45;;;;;;;;;;5012255;28;20113;-67
2022/10/20 06:24:09;;;;;;;31.77;11.15;;;;;;;;;;5041551;28;20387;-66
2022/10/20 06:26:35;;;;;;;31.40;11.10;;;;;;;;;;5029680;28;20025;-67
2022/10/20 06:29:01;;;;;;;46.47;14.70;;;;;;;;;;5024724;28;20610;-65
2022/10/20 06:31:33;;;;;;;35.88;13.55;;;;;;;;;;5029966;28;20152;-66
2022/10/20 06:33:59;;;;;;;43.90;14.40;;;;;;;;;;5028998;28;20111;-68
2022/10/20 06:36:25;;;;;;;33.75;14.10;;;;;;;;;;5030047;28;20045;-68
2022/10/20 06:38:54;;;;;;;34.80;15.52;;;;;;;;;;5029785;28;20376;-67
2022/10/20 06:41:19;;;;;;;;;;;;;;;;;;5018832;28;20014;-66
2022/10/20 06:43:44;;;;;;;38.63;14.70;;;;;;;;;;5037375;28;19905;-69
2022/10/20 06:46:11;;;;;;;32.15;12.57;;;;;;;;;;5036461;28;20029;-68
2022/10/20 06:48:36;;;;;;;42.53;13.70;;;;;;;;;;5029998;28;20026;-67
2022/10/20 06:51:03;;;;;;;45.60;12.02;;;;;;;;;;5030257;28;20030;-67
2022/10/20 06:53:29;;;;;;;24.63;10.18;;;;;;;;;;5029599;28;20031;-65
2022/10/20 06:55:55;;;;;;;24.67;10.90;;;;;;;;;;5025812;28;20104;-66
2022/10/20 06:58:21;;;;;;;34.25;10.98;;;;;;;;;;5030308;28;20026;-67
2022/10/20 07:00:46;;;;;;;29.15;11.93;;;;;;;;;;5029661;28;20028;-68
2022/10/20 07:03:11;;;;;;;22.88;11.27;;;;;;;;;;5007776;28;20035;-67
2022/10/20 07:05:36;;;;;;;35.38;12.38;;;;;;;;;;5036897;28;20029;-67
2022/10/20 07:08:01;;;;;;;34.10;11.75;;;;;;;;;;5035965;28;20025;-66
2022/10/20 07:10:27;;;;;;;46.17;12.15;;;;;;;;;;5029444;28;20037;-66
2022/10/20 07:12:52;;;;;;;37.92;12.75;;;;;;;;;;5037875;28;20164;-67
2022/10/20 07:15:17;;;;;;;37.93;12.10;;;;;;;;;;5036498;28;20074;-68
2022/10/20 07:17:42;;;;;;;38.58;14.43;;;;;;;;;;5028742;28;20258;-68
2022/10/20 07:20:08;;;;;;;32.85;11.65;;;;;;;;;;5029378;28;20131;-68
2022/10/20 07:22:35;;;;;;;33.08;11.52;;;;;;;;;;5031415;28;20497;-68
2022/10/20 07:25:05;;;;;;;25.92;10.98;;;;;;;;;;5030758;28;20029;-68
2022/10/20 07:27:30;;;;;;;;;;;;;;;;;;5042846;28;20112;-68
2022/10/20 07:29:55;;;;;;;34.30;11.73;;;;;;;;;;5026835;28;19995;-67
2022/10/20 07:32:20;;;;;;;29.42;11.45;;;;;;;;;;5033140;28;20029;-68
2022/10/20 07:34:45;;;;;;;27.25;10.23;;;;;;;;;;5032947;28;20013;-68
2022/10/20 07:37:10;;;;;;;26.40;10.73;;;;;;;;;;5039055;28;20049;-68
2022/10/20 07:39:36;;;;;;;29.52;10.68;;;;;;;;;;5040349;28;20440;-67
2022/10/20 07:42:01;;;;;;;28.95;11.18;;;;;;;;;;5033039;28;20029;-68
2022/10/20 07:44:26;;;;;;;42.67;12.52;;;;;;;;;;5032609;28;20020;-67
2022/10/20 07:46:51;;;;;;;40.67;13.57;;;;;;;;;;5027558;28;20588;-67
2022/10/20 07:49:16;;;;;;;42.45;12.75;;;;;;;;;;5026720;28;20486;-67
2022/10/20 07:51:42;;;;;;;29.40;11.05;;;;;;;;;;5046728;28;20536;-68
2022/10/20 07:54:07;;;;;;;31.40;12.27;;;;;;;;;;5034551;28;20048;-66
2022/10/20 07:56:37;;;;;;;24.33;10.82;;;;;;;;;;5031452;28;20014;-67
2022/10/20 07:59:05;;;;;;;31.70;11.27;;;;;;;;;;5024449;28;20543;-68
2022/10/20 08:01:30;;;;;;;32.22;13.10;;;;;;;;;;5024179;28;20021;-67
2022/10/20 08:03:55;;;;;;;25.95;11.65;;;;;;;;;;5034680;28;20505;-69
2022/10/20 08:06:21;;;;;;;29.73;11.02;;;;;;;;;;5030904;28;20025;-67
2022/10/20 08:08:46;;;;;;;30.73;10.52;;;;;;;;;;5037629;28;20511;-66
2022/10/20 08:11:11;;;;;;;25.90;11.40;;;;;;;;;;5039765;28;20048;-66
2022/10/20 08:13:39;;;;;;;29.77;11.07;;;;;;;;;;5015140;28;20021;-66
2022/10/20 08:16:04;;;;;;;26.37;11.07;;;;;;;;;;5034711;28;20370;-66
2022/10/20 08:18:30;;;;;;;26.67;11.68;;;;;;;;;;5027686;28;20544;-67
2022/10/20 08:21:05;;;;;;;36.22;12.15;;;;;;;;;;5017885;28;20017;-68
2022/10/20 08:23:30;;;;;;;25.52;11.70;;;;;;;;;;5033537;28;20426;-70
2022/10/20 08:25:55;;;;;;;29.00;11.50;;;;;;;;;;5033431;28;20083;-67
2022/10/20 08:28:20;;;;;;;24.67;11.38;;;;;;;;;;5031733;28;20029;-68
2022/10/20 08:30:45;;;;;;;30.50;11.98;;;;;;;;;;5026955;28;20067;-67
2022/10/20 08:33:11;;;;;;;31.60;12.00;;;;;;;;;;5027927;28;20421;-70
2022/10/20 08:35:36;;;;;;;29.77;13.70;;;;;;;;;;5034256;28;20026;-69
2022/10/20 08:38:03;;;;;;;35.25;12.90;;;;;;;;;;5033955;28;20049;-67
2022/10/20 08:40:29;;;;;;;41.58;12.45;;;;;;;;;;5032498;28;20014;-68
2022/10/20 08:42:55;;;;;;;28.98;12.60;;;;;;;;;;5041787;28;20390;-68
2022/10/20 08:45:21;;;;;;;27.08;11.05;;;;;;;;;;5028362;28;20029;-68
2022/10/20 08:47:49;;;;;;;38.95;11.82;;;;;;;;;;5020366;28;20044;-68
2022/10/20 08:50:16;;;;;;;34.25;11.13;;;;;;;;;;5041110;28;20056;-68
2022/10/20 08:52:41;;;;;;;29.48;11.85;;;;;;;;;;5032342;28;20045;-68
2022/10/20 08:55:09;;;;;;;35.22;11.70;;;;;;;;;;5032537;28;20034;-67
2022/10/20 08:57:35;;;;;;;25.80;10.63;;;;;;;;;;5031552;28;20048;-67
2022/10/20 09:00:20;;;;;;;33.15;10.90;;;;;;;;;;5014465;28;20391;-70
2022/10/20 09:02:47;;;;;;;31.38;10.55;;;;;;;;;;5031995;28;20025;-70
2022/10/20 09:05:13;;;;;;;23.50;11.20;;;;;;;;;;5001736;28;20047;-68
2022/10/20 09:07:39;;;;;;;31.20;10.38;;;;;;;;;;5041532;28;20072;-67
2022/10/20 09:10:19;;;;;;;25.55;11.68;;;;;;;;;;5031577;28;20021;-68
2022/10/20 09:12:46;;;;;;;26.23;10.98;;;;;;;;;;5020464;28;20115;-68
2022/10/20 09:15:12;;;;;;;31.73;9.57;;;;;;;;;;5029463;28;20025;-67
2022/10/20 09:17:39;;;;;;;24.17;10.30;;;;;;;;;;5030535;28;20104;-67
2022/10/20 09:20:07;;;;;;;21.63;10.20;;;;;;;;;;5032043;28;20020;-70
2022/10/20 09:22:33;;;;;;;23.98;9.55;;;;;;;;;;5044715;28;20030;-67
2022/10/20 09:24:58;;;;;;;32.47;9.73;;;;;;;;;;5016376;28;20033;-69
2022/10/20 09:27:30;;;;;;;25.05;9.40;;;;;;;;;;5039637;28;20020;-67
2022/10/20 09:29:55;;;;;;;35.58;9.10;;;;;;;;;;5032066;28;20039;-68
2022/10/20 09:32:30;;;;;;;23.52;8.82;;;;;;;;;;5013924;28;20394;-68
2022/10/20 09:35:14;;;;;;;14.88;6.25;;;;;;;;;;5034291;28;20043;-69
2022/10/20 09:37:39;;;;;;;16.92;7.40;;;;;;;;;;5041818;28;20475;-68
2022/10/20 09:40:12;;;;;;;24.83;7.70;;;;;;;;;;5032274;28;20033;-68
2022/10/20 09:42:39;;;;;;;24.13;6.47;;;;;;;;;;5033285;28;20026;-69
2022/10/20 09:45:20;;;;;;;24.40;7.22;;;;;;;;;;5032937;28;20026;-68
2022/10/20 09:47:47;;;;;;;34.03;6.53;;;;;;;;;;5031455;28;20087;-70
2022/10/20 09:50:25;;;;;;;23.80;7.95;;;;;;;;;;5031353;28;20505;-70
2022/10/20 09:52:51;;;;;;;24.35;7.40;;;;;;;;;;5044314;28;20498;-69
2022/10/20 09:55:36;;;;;;;23.65;6.18;;;;;;;;;;5031631;28;20079;-70
2022/10/20 09:58:02;;;;;;;20.08;6.68;;;;;;;;;;5031579;28;20028;-68
2022/10/20 10:00:32;;;;;;;21.23;6.78;;;;;;;;;;5031091;28;20025;-69
2022/10/20 10:03:18;;;;;;;20.70;5.45;;;;;;;;;;5030414;28;20391;-70
2022/10/20 10:05:44;;;;;;;13.25;5.82;;;;;;;;;;5043905;28;20024;-68
2022/10/20 10:08:13;;;;;;;15.60;5.78;;;;;;;;;;5023099;28;20021;-69
2022/10/20 10:10:39;;;;;;;14.60;5.45;;;;;;;;;;5029024;28;20060;-68
2022/10/20 10:13:04;;;;;;;21.42;5.57;;;;;;;;;;5040464;28;20057;-68
2022/10/20 10:15:31;;;;;;;16.38;5.55;;;;;;;;;;5036996;28;20157;-69
2022/10/20 10:17:58;;;;;;;16.90;5.55;;;;;;;;;;5041899;28;20028;-69
2022/10/20 10:20:32;;;;;;;34.58;7.55;;;;;;;;;;5030512;28;20088;-70
2022/10/20 10:23:12;;;;;;;14.63;5.70;;;;;;;;;;5032540;28;20018;-69
2022/10/20 10:25:38;;;;;;;10.93;5.38;;;;;;;;;;5043668;28;20077;-67
2022/10/20 10:28:07;;;;;;;8.68;4.75;;;;;;;;;;5011949;28;20029;-69
2022/10/20 10:30:34;;;;;;;20.92;8.48;;;;;;;;;;5029699;28;20018;-69
2022/10/20 10:33:00;;;;;;;11.02;4.82;;;;;;;;;;5042541;28;20382;-67
2022/10/20 10:35:39;;;;;;;21.30;5.03;;;;;;;;;;5030299;28;20022;-68
2022/10/20 10:38:05;;;;;;;15.73;5.25;;;;;;;;;;5029459;28;20487;-69
2022/10/20 10:40:34;;;;;;;16.77;4.82;;;;;;;;;;5029496;28;20032;-69
2022/10/20 10:43:21;;;;;;;21.45;4.18;;;;;;;;;;5029687;28;20026;-67
2022/10/20 10:45:51;;;;;;;18.58;5.35;;;;;;;;;;5030293;28;20583;-68
2022/10/20 10:48:34;;;;;;;14.95;5.57;;;;;;;;;;5017172;28;20080;-67
2022/10/20 10:51:04;;;;;;;9.25;5.05;;;;;;;;;;5029995;28;20029;-68
2022/10/20 10:53:48;;;;;;;11.35;4.30;;;;;;;;;;5023486;28;20409;-68
2022/10/20 10:56:16;;;;;;;12.95;5.03;;;;;;;;;;5035850;28;20100;-69
2022/10/20 10:58:45;;;;;;;9.57;3.63;;;;;;;;;;5040390;28;20029;-67
2022/10/20 11:01:16;;;;;;;12.90;4.30;;;;;;;;;;5042904;28;20032;-68
2022/10/20 11:03:46;;;;;;;18.60;5.03;;;;;;;;;;5040628;28;20043;-69
2022/10/20 11:06:17;;;;;;;10.45;4.20;;;;;;;;;;5033202;28;20048;-68
2022/10/20 11:08:42;;;;;;;15.30;4.90;;;;;;;;;;5037446;28;20022;-68
2022/10/20 11:11:08;;;;;;;26.58;5.40;;;;;;;;;;5033300;28;20474;-70
2022/10/20 11:13:39;;;;;;;17.77;4.85;;;;;;;;;;5047404;28;20425;-68
2022/10/20 11:16:07;;;;;;;14.52;4.47;;;;;;;;;;5030425;28;20578;-67
2022/10/20 11:18:47;;;;;;;12.83;5.83;;;;;;;;;;5042512;28;20021;-67
2022/10/20 11:21:15;;;;;;;13.45;4.88;;;;;;;;;;5017263;28;20247;-69
2022/10/20 11:23:53;;;;;;;23.77;5.72;;;;;;;;;;5027947;28;20057;-70
2022/10/20 11:26:31;;;;;;;15.07;5.43;;;;;;;;;;5026829;28;20036;-68
2022/10/20 11:28:57;;;;;;;45.33;7.20;;;;;;;;;;5038990;28;20101;-69
2022/10/20 11:31:22;;;;;;;17.20;7.63;;;;;;;;;;5030139;28;20049;-69
2022/10/20 11:33:50;;;;;;;17.17;6.03;;;;;;;;;;5041625;28;20029;-69
2022/10/20 11:36:17;;;;;;;11.03;5.20;;;;;;;;;;5030059;28;20429;-69
2022/10/20 11:38:42;;;;;;;15.18;5.63;;;;;;;;;;5023197;28;20320;-70
2022/10/20 11:41:18;;;;;;;22.53;6.20;;;;;;;;;;5021765;28;20041;-69
2022/10/20 11:43:47;;;;;;;18.55;5.95;;;;;;;;;;5036826;28;20270;-68
2022/10/20 11:46:14;;;;;;;22.20;6.40;;;;;;;;;;5036699;28;20476;-67
2022/10/20 11:48:58;;;;;;;29.88;7.13;;;;;;;;;;5029645;28;20376;-69
2022/10/20 11:51:29;;;;;;;32.40;6.63;;;;;;;;;;5025586;28;20033;-68
2022/10/20 11:54:12;;;;;;;26.35;7.18;;;;;;;;;;5029720;28;20120;-67
2022/10/20 11:56:37;;;;;;;24.13;5.60;;;;;;;;;;5030081;28;20491;-68
2022/10/20 11:59:22;;;;;;;24.40;7.10;;;;;;;;;;5030113;28;20052;-69
2022/10/20 12:02:02;;;;;;;15.50;6.93;;;;;;;;;;5016324;28;20324;-69
2022/10/20 12:04:39;;;;;;;23.20;7.00;;;;;;;;;;5040316;28;20029;-68
2022/10/20 12:07:22;;;;;;;23.88;7.05;;;;;;;;;;5025758;28;20036;-68
2022/10/20 12:09:48;;;;;;;17.50;6.90;;;;;;;;;;5019689;28;20496;-68
2022/10/20 12:12:18;;;;;;;18.13;6.85;;;;;;;;;;5028172;28;20132;-69
2022/10/20 12:14:48;;;;;;;21.50;6.22;;;;;;;;;;5040199;28;20627;-68
2022/10/20 12:17:26;;;;;;;24.80;7.78;;;;;;;;;;5034831;28;20025;-69
2022/10/20 12:20:11;;;;;;;18.58;6.93;;;;;;;;;;5045752;28;20025;-70
2022/10/20 12:22:38;;;;;;;19.02;6.97;;;;;;;;;;5030851;28;20025;-68
2022/10/20 12:25:03;;;;;;;22.60;6.53;;;;;;;;;;5041999;28;20085;-68
2022/10/20 12:27:29;;;;;;;16.67;7.57;;;;;;;;;;5047937;28;20021;-68
2022/10/20 12:30:02;;;;;;;19.60;7.82;;;;;;;;;;5017446;28;20353;-70
2022/10/20 12:32:27;;;;;;;14.43;6.70;;;;;;;;;;5037206;28;20017;-71
2022/10/20 12:34:55;;;;;;;23.43;8.07;;;;;;;;;;5037121;28;20091;-72
2022/10/20 12:37:23;;;;;;;17.00;7.37;;;;;;;;;;5048553;28;20257;-69
2022/10/20 12:39:49;;;;;;;19.40;7.22;;;;;;;;;;5022079;28;20144;-69
2022/10/20 12:42:20;;;;;;;23.75;7.68;;;;;;;;;;5026846;28;20021;-70
2022/10/20 12:44:45;;;;;;;13.82;6.32;;;;;;;;;;5052952;28;20017;-69
2022/10/20 12:47:17;;;;;;;25.08;7.82;;;;;;;;;;5046960;28;20247;-68
2022/10/20 12:49:50;;;;;;;22.75;7.38;;;;;;;;;;5041076;28;20017;-69
2022/10/20 12:52:18;;;;;;;17.52;7.63;;;;;;;;;;5036472;28;20398;-70
2022/10/20 12:54:43;;;;;;;21.25;7.43;;;;;;;;;;5048778;28;20053;-67
2022/10/20 12:57:27;;;;;;;21.17;6.78;;;;;;;;;;5035582;28;20032;-68
2022/10/20 12:59:52;;;;;;;26.38;7.13;;;;;;;;;;5033382;28;20041;-69
2022/10/20 13:02:18;;;;;;;16.42;6.50;;;;;;;;;;5032989;28;20366;-69
2022/10/20 13:05:02;;;;;;;25.23;6.50;;;;;;;;;;5032784;28;20025;-69
2022/10/20 13:07:46;;;;;;;25.27;6.75;;;;;;;;;;5032040;28;20023;-68
2022/10/20 13:10:30;;;;;;;36.33;6.72;;;;;;;;;;5033226;28;20029;-69
2022/10/20 13:13:01;;;;;;;21.40;7.28;;;;;;;;;;5039484;28;20104;-69
2022/10/20 13:15:46;;;;;;;16.10;5.93;;;;;;;;;;5038019;28;20048;-69
2022/10/20 13:18:11;;;;;;;16.48;5.80;;;;;;;;;;5032145;28;20049;-71
2022/10/20 13:20:46;;;;;;;21.80;5.88;;;;;;;;;;5036831;28;20032;-69
2022/10/20 13:23:15;;;;;;;20.88;5.80;;;;;;;;;;5040071;28;20045;-70
2022/10/20 13:25:54;;;;;;;15.55;5.60;;;;;;;;;;5019835;28;20060;-68
2022/10/20 13:28:22;;;;;;;16.38;6.20;;;;;;;;;;5025922;28;20052;-68
2022/10/20 13:30:53;;;;;;;30.02;6.78;;;;;;;;;;5031811;28;20284;-69
2022/10/20 13:33:23;;;;;;;27.35;5.75;;;;;;;;;;5032426;28;20026;-68
2022/10/20 13:36:11;;;;;;;15.15;4.78;;;;;;;;;;5031324;28;20144;-68
2022/10/20 13:38:36;;;;;;;;;;;;;;;;;;5024557;28;20025;-70
2022/10/20 13:41:09;;;;;;;18.05;4.68;;;;;;;;;;5028713;28;19916;-69
2022/10/20 13:43:53;;;;;;;15.77;5.22;;;;;;;;;;5026214;28;20053;-68
2022/10/20 13:46:25;;;;;;;15.52;4.75;;;;;;;;;;5021791;28;20017;-70
2022/10/20 13:49:01;;;;;;;17.75;5.70;;;;;;;;;;5040239;28;20029;-71
2022/10/20 13:51:28;;;;;;;21.13;4.50;;;;;;;;;;5034223;28;20040;-69
2022/10/20 13:53:56;;;;;;;14.75;3.30;;;;;;;;;;5031016;28;20032;-71
2022/10/20 13:56:39;;;;;;;12.27;3.13;;;;;;;;;;5033163;28;20467;-69
2022/10/20 13:59:05;;;;;;;17.05;3.85;;;;;;;;;;5033092;28;20259;-69
2022/10/20 14:01:31;;;;;;;15.75;3.22;;;;;;;;;;5038096;28;20044;-69
2022/10/20 14:03:57;;;;;;;12.32;3.45;;;;;;;;;;5031841;28;20479;-72
2022/10/20 14:06:37;;;;;;;12.20;3.40;;;;;;;;;;5041564;28;20078;-69
2022/10/20 14:09:10;;;;;;;10.27;3.50;;;;;;;;;;5028304;28;20048;-68
2022/10/20 14:11:36;;;;;;;9.45;2.95;;;;;;;;;;5040871;28;20021;-69
2022/10/20 14:14:01;;;;;;;23.55;4.50;;;;;;;;;;5012300;28;20033;-68
2022/10/20 14:16:28;;;;;;;15.35;3.33;;;;;;;;;;5031146;28;20095;-69
2022/10/20 14:19:00;;;;;;;21.83;3.40;;;;;;;;;;5030322;28;20013;-73
2022/10/20 14:21:27;;;;;;;20.02;3.20;;;;;;;;;;5039100;28;20422;-68
2022/10/20 14:23:54;;;;;;;22.98;4.32;;;;;;;;;;5036223;28;20013;-67
2022/10/20 14:26:20;;;;;;;17.63;3.70;;;;;;;;;;5029147;28;20064;-72
2022/10/20 14:28:47;;;;;;;10.75;3.53;;;;;;;;;;5023111;28;20018;-70
2022/10/20 14:31:13;;;;;;;28.85;3.75;;;;;;;;;;5030619;28;20033;-70
2022/10/20 14:33:45;;;;;;;18.10;3.30;;;;;;;;;;5030852;28;20017;-69
2022/10/20 14:36:17;;;;;;;33.25;5.35;;;;;;;;;;5031177;28;20025;-74